createdAt,value
2023-02-22T00:00:59.665Z,3.33
2023-02-22T00:03:35.115Z,4.03
2023-02-22T00:06:05.976Z,3.67
2023-02-22T00:08:37.282Z,4.53
2023-02-22T00:11:08.686Z,4.75
2023-02-22T00:13:37.909Z,5.07
2023-02-22T00:16:05.803Z,3.75
2023-02-22T00:18:32.726Z,4.03
2023-02-22T00:21:00.923Z,3.33
2023-02-22T00:23:30.556Z,4.70
2023-02-22T00:25:59.747Z,5.22
2023-02-22T00:28:27.291Z,4.85
2023-02-22T00:30:54.842Z,4.65
2023-02-22T00:33:22.781Z,4.03
2023-02-22T00:35:50.155Z,4.38
2023-02-22T00:38:18.993Z,4.05
2023-02-22T00:40:45.934Z,4.25
2023-02-22T00:43:13.794Z,3.72
2023-02-22T00:45:41.713Z,3.35
2023-02-22T00:48:09.891Z,3.72
2023-02-22T00:50:37.516Z,4.50
2023-02-22T00:53:05.864Z,5.13
2023-02-22T00:55:36.568Z,4.72
2023-02-22T00:58:05.429Z,6.25
2023-02-22T01:00:40.083Z,8.98
2023-02-22T01:03:10.803Z,5.85
2023-02-22T01:05:38.847Z,4.95
2023-02-22T01:08:08.942Z,5.95
2023-02-22T01:10:37.935Z,6.13
2023-02-22T01:13:08.813Z,4.45
2023-02-22T01:15:39.144Z,4.18
2023-02-22T01:18:06.415Z,2.97
2023-02-22T01:20:33.684Z,5.95
2023-02-22T01:23:03.571Z,4.80
2023-02-22T01:25:31.929Z,5.10
2023-02-22T01:28:01.013Z,4.25
2023-02-22T01:30:34.923Z,6.00
2023-02-22T01:33:05.702Z,4.70
2023-02-22T01:35:37.058Z,4.20
2023-02-22T01:38:04.005Z,4.50
2023-02-22T01:40:38.384Z,5.60
2023-02-22T01:43:29.569Z,4.28
2023-02-22T01:49:06.497Z,5.45
2023-02-22T01:51:40.652Z,5.68
2023-02-22T01:54:31.538Z,5.88
2023-02-22T01:57:17.929Z,5.53
2023-02-22T01:59:49.701Z,5.93
2023-02-22T02:02:18.763Z,6.57
2023-02-22T02:04:46.361Z,5.15
2023-02-22T02:07:17.339Z,5.13
2023-02-22T02:12:17.124Z,5.72
2023-02-22T02:14:44.553Z,4.40
2023-02-22T02:17:19.321Z,5.88
2023-02-22T02:19:58.841Z,7.20
2023-02-22T02:23:02.067Z,5.68
2023-02-22T02:26:15.512Z,5.72
2023-02-22T02:29:33.605Z,4.88
2023-02-22T02:32:25.669Z,7.82
2023-02-22T02:35:44.143Z,7.20
2023-02-22T02:38:52.382Z,5.55
2023-02-22T02:41:36.183Z,4.80
2023-02-22T02:44:19.536Z,6.55
2023-02-22T02:47:26.365Z,5.25
2023-02-22T02:50:19.569Z,5.90
2023-02-22T02:52:50.817Z,9.70
2023-02-22T02:55:18.814Z,6.68
2023-02-22T02:57:45.779Z,7.85
2023-02-22T03:00:24.446Z,7.07
2023-02-22T03:03:10.844Z,5.30
2023-02-22T03:06:07.937Z,6.25
2023-02-22T03:08:56.997Z,6.43
2023-02-22T03:11:32.094Z,7.03
2023-02-22T03:14:38.566Z,5.93
2023-02-22T03:17:26.773Z,6.35
2023-02-22T03:20:13.210Z,8.63
2023-02-22T03:22:53.208Z,6.07
2023-02-22T03:25:34.072Z,8.05
2023-02-22T03:28:11.434Z,8.43
2023-02-22T03:30:46.851Z,8.25
2023-02-22T03:33:28.686Z,8.52
2023-02-22T03:36:01.128Z,6.30
2023-02-22T03:38:32.454Z,6.80
2023-02-22T03:41:02.216Z,8.05
2023-02-22T03:44:06.615Z,7.15
2023-02-22T03:46:35.885Z,6.88
2023-02-22T03:49:29.702Z,5.40
2023-02-22T03:51:57.696Z,8.02
2023-02-22T03:54:27.365Z,7.03
2023-02-22T03:57:06.739Z,7.82
2023-02-22T03:59:37.945Z,7.13
2023-02-22T04:02:06.384Z,7.15
2023-02-22T04:04:33.343Z,7.45
2023-02-22T04:07:00.686Z,8.85
2023-02-22T04:09:28.831Z,7.88
2023-02-22T04:11:56.322Z,7.20
2023-02-22T04:14:23.989Z,8.32
2023-02-22T04:16:51.086Z,6.93
2023-02-22T04:19:18.117Z,5.93
2023-02-22T04:21:45.080Z,9.70
2023-02-22T04:24:19.134Z,7.85
2023-02-22T04:26:46.162Z,8.40
2023-02-22T04:29:13.223Z,6.22
2023-02-22T04:31:41.816Z,9.27
2023-02-22T04:34:09.658Z,6.78
2023-02-22T04:36:42.240Z,6.50
2023-02-22T04:39:09.589Z,6.28
2023-02-22T04:41:36.598Z,6.43
2023-02-22T04:44:03.600Z,7.13
2023-02-22T04:46:31.715Z,8.25
2023-02-22T04:48:58.953Z,5.68
2023-02-22T04:51:28.703Z,8.35
2023-02-22T04:54:05.322Z,6.53
2023-02-22T04:56:34.561Z,8.05
2023-02-22T04:59:01.618Z,9.50
2023-02-22T05:01:34.753Z,10.00
2023-02-22T05:04:07.462Z,8.00
2023-02-22T05:06:34.583Z,8.90
2023-02-22T05:09:01.565Z,8.05
2023-02-22T05:11:28.947Z,9.48
2023-02-22T05:13:56.053Z,7.88
2023-02-22T05:16:23.228Z,7.78
2023-02-22T05:18:50.168Z,11.65
2023-02-22T05:21:17.366Z,9.27
2023-02-22T05:23:44.443Z,8.88
2023-02-22T05:26:11.803Z,9.52
2023-02-22T05:28:39.047Z,10.10
2023-02-22T05:31:07.341Z,9.40
2023-02-22T05:33:34.517Z,8.57
2023-02-22T05:36:01.474Z,9.13
2023-02-22T05:38:28.576Z,8.18
2023-02-22T05:40:56.827Z,13.57
2023-02-22T05:43:23.777Z,9.23
2023-02-22T05:45:50.693Z,8.30
2023-02-22T05:48:17.661Z,7.28
2023-02-22T05:50:44.617Z,7.97
2023-02-22T05:53:11.538Z,10.55
2023-02-22T05:55:38.468Z,7.97
2023-02-22T05:58:05.806Z,9.60
2023-02-22T06:00:33.227Z,8.75
2023-02-22T06:03:04.207Z,10.73
2023-02-22T06:05:32.097Z,9.40
2023-02-22T06:08:01.046Z,10.07
2023-02-22T06:10:28.500Z,9.82
2023-02-22T06:12:56.463Z,8.20
2023-02-22T06:15:25.684Z,11.45
2023-02-22T06:17:54.478Z,11.75
2023-02-22T06:20:24.109Z,8.80
2023-02-22T06:22:53.430Z,9.32
2023-02-22T06:25:25.044Z,8.77
2023-02-22T06:27:52.377Z,8.85
2023-02-22T06:30:23.722Z,12.25
2023-02-22T06:32:51.027Z,8.23
2023-02-22T06:35:18.726Z,9.93
2023-02-22T06:37:45.756Z,9.10
2023-02-22T06:40:14.122Z,9.93
2023-02-22T06:42:41.391Z,11.45
2023-02-22T06:45:09.674Z,11.10
2023-02-22T06:47:41.300Z,9.88
2023-02-22T06:50:30.140Z,8.73
2023-02-22T06:52:58.610Z,7.97
2023-02-22T06:55:31.964Z,9.80
2023-02-22T06:57:59.948Z,8.75
2023-02-22T07:00:29.244Z,8.77
2023-02-22T07:02:56.957Z,9.93
2023-02-22T07:05:25.298Z,9.30
2023-02-22T07:07:55.558Z,12.57
2023-02-22T07:10:29.295Z,10.35
2023-02-22T07:12:56.306Z,12.48
2023-02-22T07:15:25.686Z,7.45
2023-02-22T07:17:53.346Z,11.35
2023-02-22T07:20:22.142Z,10.13
2023-02-22T07:22:50.042Z,9.10
2023-02-22T07:25:17.419Z,9.95
2023-02-22T07:27:44.501Z,8.18
2023-02-22T07:30:32.165Z,8.43
2023-02-22T07:33:02.016Z,9.07
2023-02-22T07:35:44.387Z,9.80
2023-02-22T07:38:11.304Z,10.85
2023-02-22T07:40:39.397Z,8.30
2023-02-22T07:43:27.699Z,8.60
2023-02-22T07:45:57.204Z,8.45
2023-02-22T07:48:27.537Z,9.95
2023-02-22T07:50:54.683Z,9.80
2023-02-22T07:53:30.150Z,7.85
2023-02-22T07:56:05.793Z,7.82
2023-02-22T07:58:33.301Z,8.07
2023-02-22T08:01:03.774Z,8.48
2023-02-22T08:03:36.425Z,7.88
2023-02-22T08:06:06.403Z,8.48
2023-02-22T08:08:34.383Z,8.15
2023-02-22T08:11:01.554Z,8.40
2023-02-22T08:13:28.619Z,8.77
2023-02-22T08:15:56.060Z,8.88
2023-02-22T08:18:24.691Z,8.70
2023-02-22T08:20:52.784Z,7.40
2023-02-22T08:23:23.408Z,7.95
2023-02-22T08:25:50.807Z,6.72
2023-02-22T08:28:23.197Z,7.57
2023-02-22T08:30:52.048Z,9.40
2023-02-22T08:33:19.715Z,8.25
2023-02-22T08:35:49.466Z,6.65
2023-02-22T08:38:28.863Z,7.72
2023-02-22T08:40:56.121Z,7.60
2023-02-22T08:43:23.900Z,7.88
2023-02-22T08:45:51.762Z,7.45
2023-02-22T08:48:19.977Z,8.05
2023-02-22T08:50:47.048Z,7.22
2023-02-22T08:53:16.130Z,5.53
2023-02-22T08:55:44.486Z,6.35
2023-02-22T08:58:12.533Z,8.77
2023-02-22T09:00:41.194Z,7.45
2023-02-22T09:03:11.836Z,8.68
2023-02-22T09:05:39.155Z,8.80
2023-02-22T09:08:06.402Z,5.95
2023-02-22T09:10:34.829Z,7.30
2023-02-22T09:13:03.838Z,7.55
2023-02-22T09:15:32.139Z,7.00
2023-02-22T09:18:00.230Z,8.10
2023-02-22T09:20:28.873Z,8.05
2023-02-22T09:22:57.018Z,6.40
2023-02-22T09:25:24.240Z,10.10
2023-02-22T09:27:53.388Z,5.90
2023-02-22T09:30:31.781Z,7.43
2023-02-22T09:33:07.047Z,8.50
2023-02-22T09:35:36.040Z,9.52
2023-02-22T09:38:06.222Z,7.65
2023-02-22T09:40:44.699Z,10.85
2023-02-22T09:43:26.558Z,7.50
2023-02-22T09:46:41.933Z,6.32
2023-02-22T09:49:31.205Z,6.63
2023-02-22T09:52:14.212Z,6.03
2023-02-22T09:54:51.669Z,7.75
2023-02-22T09:57:28.856Z,6.35
2023-02-22T10:00:19.999Z,4.50
2023-02-22T10:06:06.444Z,5.10
2023-02-22T10:08:34.432Z,7.07
2023-02-22T10:11:42.644Z,8.48
2023-02-22T10:14:30.420Z,7.15
2023-02-22T10:17:40.250Z,8.23
2023-02-22T10:20:59.839Z,9.75
2023-02-22T10:23:55.217Z,7.25
2023-02-22T10:26:41.836Z,7.05
2023-02-22T10:29:41.702Z,5.65
2023-02-22T10:32:36.165Z,6.30
2023-02-22T10:35:16.161Z,6.78
2023-02-22T10:37:43.304Z,7.90
2023-02-22T10:40:31.942Z,7.50
2023-02-22T10:43:09.485Z,7.75
2023-02-22T10:45:37.047Z,10.75
2023-02-22T10:48:18.305Z,5.68
2023-02-22T10:50:47.254Z,7.72
2023-02-22T10:53:18.651Z,6.40
2023-02-22T10:56:22.079Z,8.00
2023-02-22T10:59:05.839Z,6.72
2023-02-22T11:01:32.724Z,6.78
2023-02-22T11:04:17.967Z,7.72
2023-02-22T11:07:06.865Z,7.47
2023-02-22T11:09:59.966Z,9.55
2023-02-22T11:12:39.661Z,6.22
2023-02-22T11:15:29.646Z,6.68
2023-02-22T11:17:58.793Z,7.20
2023-02-22T11:20:34.445Z,8.13
2023-02-22T11:23:04.433Z,7.65
2023-02-22T11:25:42.473Z,7.73
2023-02-22T11:28:10.681Z,7.15
2023-02-22T11:30:38.319Z,8.45
2023-02-22T11:33:25.706Z,6.28
2023-02-22T11:36:02.166Z,8.15
2023-02-22T11:38:32.531Z,9.23
2023-02-22T11:41:05.349Z,8.63
2023-02-22T11:43:32.517Z,9.65
2023-02-22T11:46:16.880Z,7.28
2023-02-22T11:49:14.042Z,14.35
2023-02-22T11:52:01.210Z,6.50
2023-02-22T11:55:03.022Z,8.60
2023-02-22T11:58:13.910Z,6.22
2023-02-22T12:01:00.741Z,6.50
2023-02-22T12:03:58.829Z,6.32
2023-02-22T12:07:17.337Z,5.70
2023-02-22T12:09:54.802Z,4.68
2023-02-22T12:12:38.848Z,9.38
2023-02-22T12:15:18.357Z,7.60
2023-02-22T12:18:13.092Z,5.78
2023-02-22T12:20:55.528Z,6.05
2023-02-22T12:24:14.285Z,8.45
2023-02-22T12:26:55.097Z,8.55
2023-02-22T12:32:18.325Z,6.22
2023-02-22T12:35:16.808Z,7.03
2023-02-22T12:38:04.664Z,6.75
2023-02-22T12:41:06.003Z,6.07
2023-02-22T12:43:51.624Z,7.22
2023-02-22T12:46:26.893Z,6.30
2023-02-22T12:49:14.432Z,5.80
2023-02-22T12:52:21.353Z,6.68
2023-02-22T12:55:04.203Z,7.82
2023-02-22T12:58:18.231Z,5.35
2023-02-22T13:00:51.266Z,7.40
2023-02-22T13:03:40.957Z,7.72
2023-02-22T13:06:40.444Z,7.72
2023-02-22T13:09:08.954Z,7.57
2023-02-22T13:12:03.048Z,6.93
2023-02-22T13:15:05.308Z,8.32
2023-02-22T13:17:48.302Z,7.90
2023-02-22T13:20:42.066Z,7.72
2023-02-22T13:23:34.857Z,8.15
2023-02-22T13:26:42.035Z,6.13
2023-02-22T13:29:28.337Z,9.65
2023-02-22T13:32:16.972Z,8.02
2023-02-22T13:35:25.916Z,10.90
2023-02-22T13:38:21.689Z,7.20
2023-02-22T13:41:36.055Z,8.45
2023-02-22T13:44:46.926Z,8.25
2023-02-22T13:50:31.477Z,8.23
2023-02-22T13:53:00.609Z,7.13
2023-02-22T13:55:32.896Z,6.32
2023-02-22T13:58:09.647Z,7.55
2023-02-22T14:00:48.840Z,7.60
2023-02-22T14:03:15.680Z,6.10
2023-02-22T14:05:42.686Z,7.43
2023-02-22T14:08:31.515Z,5.72
2023-02-22T14:11:15.203Z,7.28
2023-02-22T14:14:12.128Z,8.48
2023-02-22T14:16:39.152Z,6.38
2023-02-22T14:19:23.385Z,7.53
2023-02-22T14:22:06.707Z,6.47
2023-02-22T14:24:47.442Z,6.25
2023-02-22T14:27:17.445Z,8.20
2023-02-22T14:29:59.545Z,7.65
2023-02-22T14:32:33.818Z,7.30
2023-02-22T14:35:14.262Z,6.55
2023-02-22T14:37:55.620Z,11.10
2023-02-22T14:40:27.800Z,11.40
2023-02-22T14:43:11.257Z,7.72
2023-02-22T14:45:56.395Z,8.65
2023-02-22T14:48:43.492Z,8.48
2023-02-22T14:51:31.310Z,6.70
2023-02-22T14:54:45.036Z,8.63
2023-02-22T14:57:29.555Z,9.10
2023-02-22T15:00:19.920Z,6.40
2023-02-22T15:02:52.173Z,7.87
2023-02-22T15:05:20.748Z,8.93
2023-02-22T15:08:06.175Z,7.40
2023-02-22T15:10:46.767Z,8.73
2023-02-22T15:13:20.113Z,7.28
2023-02-22T15:15:54.608Z,7.78
2023-02-22T15:18:44.779Z,11.73
2023-02-22T15:21:19.169Z,10.10
2023-02-22T15:24:01.462Z,8.30
2023-02-22T15:26:42.480Z,10.20
2023-02-22T15:29:25.275Z,9.27
2023-02-22T15:31:56.310Z,8.30
2023-02-22T15:34:33.352Z,8.52
2023-02-22T15:37:25.036Z,8.02
2023-02-22T15:39:59.221Z,10.20
2023-02-22T15:42:29.700Z,8.43
2023-02-22T15:44:57.924Z,11.73
2023-02-22T15:47:31.866Z,8.43
2023-02-22T15:50:18.077Z,10.15
2023-02-22T15:53:01.766Z,9.77
2023-02-22T15:55:43.612Z,9.27
2023-02-22T15:58:22.219Z,11.45
2023-02-22T16:01:09.130Z,9.63
2023-02-22T16:03:55.106Z,11.57
2023-02-22T16:06:36.845Z,10.05
2023-02-22T16:09:17.220Z,9.60
2023-02-22T16:11:46.326Z,10.52
2023-02-22T16:14:34.938Z,12.77
2023-02-22T16:17:49.475Z,12.90
2023-02-22T16:20:24.779Z,8.77
2023-02-22T16:22:51.774Z,8.73
2023-02-22T16:25:18.710Z,8.73
2023-02-22T16:27:57.454Z,9.98
2023-02-22T16:30:36.652Z,14.93
2023-02-22T16:33:16.437Z,8.70
2023-02-22T16:35:52.394Z,11.63
2023-02-22T16:38:21.194Z,10.02
2023-02-22T16:40:53.806Z,9.88
2023-02-22T16:43:31.417Z,11.07
2023-02-22T16:46:01.518Z,9.73
2023-02-22T16:48:32.721Z,11.85
2023-02-22T16:51:07.216Z,9.23
2023-02-22T16:53:34.462Z,8.05
2023-02-22T16:56:05.737Z,7.97
2023-02-22T16:58:36.542Z,10.30
2023-02-22T17:03:30.399Z,9.68
2023-02-22T17:05:57.406Z,10.60
2023-02-22T17:08:24.582Z,12.75
2023-02-22T17:10:56.578Z,12.73
2023-02-22T17:13:27.477Z,12.57
2023-02-22T17:15:56.362Z,9.27
2023-02-22T17:18:28.543Z,13.43
2023-02-22T17:20:55.878Z,9.70
2023-02-22T17:23:24.260Z,9.73
2023-02-22T17:25:59.124Z,10.70
2023-02-22T17:28:26.973Z,12.20
2023-02-22T17:31:01.053Z,10.45
2023-02-22T17:33:32.796Z,10.10
2023-02-22T17:36:02.122Z,9.43
2023-02-22T17:38:30.351Z,11.60
2023-02-22T17:40:59.673Z,10.80
2023-02-22T17:43:30.369Z,11.40
2023-02-22T17:45:57.446Z,15.57
2023-02-22T17:48:24.722Z,10.52
2023-02-22T17:50:53.011Z,12.07
2023-02-22T17:53:25.279Z,12.60
2023-02-22T17:55:52.677Z,10.50
2023-02-22T17:58:20.122Z,11.82
2023-02-22T18:00:49.869Z,11.98
2023-02-22T18:03:25.312Z,10.20
2023-02-22T18:05:59.703Z,11.50
2023-02-22T18:08:29.928Z,14.63
2023-02-22T18:10:57.257Z,13.65
2023-02-22T18:13:27.047Z,13.27
2023-02-22T18:15:59.731Z,13.25
2023-02-22T18:18:27.193Z,11.02
2023-02-22T18:20:59.213Z,10.43
2023-02-22T18:23:28.938Z,11.50
2023-02-22T18:26:09.560Z,14.13
2023-02-22T18:31:14.329Z,10.52
2023-02-22T18:33:48.385Z,11.05
2023-02-22T18:36:21.547Z,10.43
2023-02-22T18:38:49.701Z,12.77
2023-02-22T18:41:19.353Z,13.77
2023-02-22T18:43:46.700Z,11.60
2023-02-22T18:46:19.765Z,12.98
2023-02-22T18:48:51.308Z,12.13
2023-02-22T18:51:18.359Z,11.73
2023-02-22T18:53:47.680Z,13.48
2023-02-22T18:56:22.524Z,17.63
2023-02-22T18:59:02.229Z,16.90
2023-02-22T19:01:38.610Z,15.38
2023-02-22T19:04:10.052Z,11.50
2023-02-22T19:06:37.564Z,11.68
2023-02-22T19:09:08.324Z,12.52
2023-02-22T19:11:36.327Z,10.70
2023-02-22T19:14:05.103Z,15.05
2023-02-22T19:16:32.790Z,13.00
2023-02-22T19:18:59.932Z,12.20
2023-02-22T19:21:29.416Z,15.18
2023-02-22T19:24:02.713Z,14.65
2023-02-22T19:26:30.684Z,13.38
2023-02-22T19:29:01.297Z,14.90
2023-02-22T19:31:33.217Z,17.60
2023-02-22T19:34:09.797Z,14.23
2023-02-22T19:36:44.818Z,14.65
2023-02-22T19:39:16.403Z,13.88
2023-02-22T19:41:43.390Z,13.32
2023-02-22T19:44:10.852Z,17.08
2023-02-22T19:46:38.257Z,14.55
2023-02-22T19:49:06.288Z,17.98
2023-02-22T19:51:34.047Z,14.45
2023-02-22T19:54:05.030Z,14.05
2023-02-22T19:59:09.178Z,12.23
2023-02-22T20:01:37.382Z,16.33
2023-02-22T20:04:08.256Z,17.55
2023-02-22T20:09:13.843Z,15.20
2023-02-22T20:11:40.785Z,14.60
2023-02-22T20:14:08.240Z,15.68
2023-02-22T20:16:35.679Z,15.05
2023-02-22T20:19:02.758Z,14.80
2023-02-22T20:21:33.591Z,16.60
2023-02-22T20:24:03.794Z,16.55
2023-02-22T20:26:32.785Z,16.83
2023-02-22T20:29:00.558Z,16.08
2023-02-22T20:31:29.522Z,16.27
2023-02-22T20:33:59.628Z,15.90
2023-02-22T20:36:28.896Z,20.90
2023-02-22T20:39:00.252Z,17.80
2023-02-22T20:41:35.682Z,20.33
2023-02-22T20:44:06.811Z,17.40
2023-02-22T20:46:37.419Z,19.98
2023-02-22T20:49:08.073Z,19.88
2023-02-22T20:51:35.378Z,15.77
2023-02-22T20:54:02.499Z,15.90
2023-02-22T20:56:32.320Z,19.58
2023-02-22T20:59:01.959Z,18.08
2023-02-22T21:01:29.416Z,16.23
2023-02-22T21:04:06.183Z,20.92
2023-02-22T21:06:37.047Z,20.17
2023-02-22T21:09:08.590Z,18.95
2023-02-22T21:11:36.120Z,21.52
2023-02-22T21:14:03.699Z,20.60
2023-02-22T21:16:36.896Z,21.23
2023-02-22T21:19:07.306Z,22.60
2023-02-22T21:21:35.538Z,19.58
2023-02-22T21:24:02.650Z,19.70
2023-02-22T21:26:33.102Z,21.45
2023-02-22T21:29:04.618Z,21.10
2023-02-22T21:31:33.264Z,19.50
2023-02-22T21:34:00.860Z,19.63
2023-02-22T21:36:28.803Z,19.92
2023-02-22T21:39:01.795Z,19.75
2023-02-22T21:41:30.874Z,21.92
2023-02-22T21:43:59.384Z,21.98
2023-02-22T21:46:29.028Z,21.15
2023-02-22T21:48:58.377Z,22.08
2023-02-22T21:51:32.328Z,20.50
2023-02-22T21:54:08.241Z,20.10
2023-02-22T21:56:38.595Z,19.65
2023-02-22T21:59:24.070Z,18.42
2023-02-22T22:01:57.581Z,17.98
2023-02-22T22:04:34.851Z,19.13
2023-02-22T22:07:04.505Z,23.25
2023-02-22T22:09:37.664Z,22.02
2023-02-22T22:12:05.606Z,19.73
2023-02-22T22:14:34.517Z,20.98
2023-02-22T22:17:05.335Z,21.67
2023-02-22T22:19:39.010Z,21.90
2023-02-22T22:22:06.918Z,21.92
2023-02-22T22:24:34.866Z,22.70
2023-02-22T22:27:05.501Z,21.67
2023-02-22T22:29:34.227Z,19.35
2023-02-22T22:32:01.820Z,21.40
2023-02-22T22:34:29.564Z,20.13
2023-02-22T22:36:58.072Z,21.20
2023-02-22T22:39:26.329Z,20.83
2023-02-22T22:41:53.299Z,20.98
2023-02-22T22:44:22.218Z,19.48
2023-02-22T22:46:53.414Z,19.73
2023-02-22T22:49:20.751Z,21.88
2023-02-22T22:51:48.141Z,20.05
2023-02-22T22:54:15.073Z,17.60
2023-02-22T22:56:42.149Z,19.00
2023-02-22T22:59:13.055Z,20.85
2023-02-22T23:01:46.714Z,20.30
2023-02-22T23:04:16.794Z,23.02
2023-02-22T23:06:52.386Z,24.57
2023-02-22T23:09:30.317Z,19.85
2023-02-22T23:12:09.927Z,19.95
2023-02-22T23:14:43.971Z,22.33
2023-02-22T23:17:30.785Z,20.48
2023-02-22T23:19:57.725Z,18.88
2023-02-22T23:22:24.649Z,20.45
2023-02-22T23:24:54.464Z,19.40
2023-02-22T23:27:23.647Z,21.85
2023-02-22T23:29:50.588Z,20.50
2023-02-22T23:32:17.603Z,25.33
2023-02-22T23:34:44.592Z,20.63
2023-02-22T23:37:13.944Z,18.20
2023-02-22T23:39:41.112Z,22.60
2023-02-22T23:42:10.868Z,22.83
2023-02-22T23:44:39.745Z,20.00
2023-02-22T23:47:07.243Z,20.92
2023-02-22T23:49:38.355Z,22.92
2023-02-22T23:52:07.420Z,21.92
2023-02-22T23:54:40.297Z,20.27
2023-02-22T23:57:08.747Z,19.58
2023-02-22T23:59:40.185Z,22.20
